Terminal Aerodrome Forecast
Issued by NWS Sioux Falls, SD

Home | Current Version | Previous Version | Graphics & Text | Print | Product List | Glossary On
Versions: 1 2 3 4 5 6 7 8 9 10 11 12 13 14 15 16 17 18 19 20 21 22 23 24
295
FTUS43 KFSD 230533
TAFFSD
TAF
KFSD 230533Z 2306/2406 22004KT P6SM OVC015
     FM230700 23005KT P6SM OVC015
     FM231100 29006KT P6SM OVC010
     FM231400 30007KT P6SM OVC011
     FM240200 VRB03KT P6SM BKN008=

USA.gov is the U.S. government's official web portal to all federal, state and local government web resources and services.